Time;durP1;ratioP1;P1;durP2;ratioP2;P2;SDS_P1;SDS_P2;PMS_P1;PMS_P2;Temp;Humidity;BMP_temperature;BMP_pressure;BME280_temperature;BME280_humidity;BME280_pressure;Samples;Min_cycle;Max_cycle;Signal;HPM_P1;HPM_P2
2023/07/28 00:03:03;;;;;;;2.15;1.40;;;;;;;18.28;100.00;99299.34;10334915;28;20551;-75
2023/07/28 00:08:04;;;;;;;1.77;1.40;;;;;;;18.31;100.00;99296.25;10334780;28;20108;-76
2023/07/28 00:13:06;;;;;;;2.63;1.50;;;;;;;18.30;100.00;99304.53;10333703;28;20057;-74
2023/07/28 00:18:07;;;;;;;3.13;1.85;;;;;;;18.28;100.00;99301.19;10332751;28;21301;-76
2023/07/28 00:23:09;;;;;;;1.85;1.40;;;;;;;18.27;100.00;99291.44;10331900;28;20053;-76
2023/07/28 00:28:10;;;;;;;2.10;1.40;;;;;;;18.22;100.00;99308.19;10334321;28;20062;-79
2023/07/28 00:33:11;;;;;;;3.00;1.67;;;;;;;18.25;100.00;99297.03;10332586;28;21360;-74
2023/07/28 00:38:13;;;;;;;1.58;1.23;;;;;;;18.20;100.00;99284.16;10339081;28;20057;-75
2023/07/28 00:43:14;;;;;;;2.10;1.50;;;;;;;18.21;100.00;99276.94;10331632;28;20058;-74
2023/07/28 00:48:17;;;;;;;1.52;1.40;;;;;;;18.21;100.00;99282.31;10332134;28;20100;-75
2023/07/28 00:53:19;;;;;;;2.72;1.48;;;;;;;18.21;100.00;99282.31;10333810;28;20053;-76
2023/07/28 00:58:21;;;;;;;1.77;1.48;;;;;;;18.14;100.00;99281.44;10333834;28;20041;-75
2023/07/28 01:03:23;;;;;;;1.92;1.42;;;;;;;18.16;100.00;99271.28;10332220;28;20049;-77
2023/07/28 01:08:41;;;;;;;1.83;1.63;;;;;;;18.13;100.00;99274.38;10330778;28;20650;-77
2023/07/28 01:13:43;;;;;;;2.45;2.10;;;;;;;18.13;100.00;99269.81;10332726;28;20052;-76
2023/07/28 01:18:44;;;;;;;2.08;1.58;;;;;;;18.14;100.00;99257.19;10333241;28;20740;-75
2023/07/28 01:24:05;;;;;;;2.70;1.75;;;;;;;18.18;100.00;99269.25;10331227;28;20088;-74
2023/07/28 01:29:07;;;;;;;2.22;1.77;;;;;;;18.22;100.00;99266.97;10312347;28;20238;-76
2023/07/28 01:34:08;;;;;;;3.78;1.92;;;;;;;18.19;100.00;99270.91;10323091;28;20555;-76
2023/07/28 01:39:10;;;;;;;3.42;2.28;;;;;;;18.16;100.00;99257.81;10311542;28;20049;-74
2023/07/28 01:44:11;;;;;;;2.80;2.10;;;;;;;18.15;100.00;99258.84;10315963;28;20560;-74
2023/07/28 01:49:12;;;;;;;3.22;2.90;;;;;;;18.14;100.00;99260.72;10314613;28;20129;-75
2023/07/28 01:54:14;;;;;;;2.95;2.33;;;;;;;18.15;100.00;99264.22;10307996;28;20073;-76
2023/07/28 01:59:15;;;;;;;2.40;2.00;;;;;;;18.18;100.00;99259.31;10317682;28;20042;-75
2023/07/28 02:04:17;;;;;;;2.63;2.20;;;;;;;18.10;100.00;99250.53;10321993;28;20053;-77
2023/07/28 02:09:19;;;;;;;2.30;1.73;;;;;;;18.20;100.00;99270.69;10316154;28;20505;-75
2023/07/28 02:14:20;;;;;;;3.55;2.53;;;;;;;18.23;100.00;99266.78;10315343;28;20140;-76
2023/07/28 02:19:21;;;;;;;3.65;2.55;;;;;;;18.17;100.00;99273.78;10320928;28;20149;-76
2023/07/28 02:24:23;;;;;;;2.33;2.00;;;;;;;18.17;100.00;99265.72;10318713;28;20050;-76
2023/07/28 02:29:24;;;;;;;2.97;2.42;;;;;;;18.13;100.00;99264.44;10320222;28;20132;-75
2023/07/28 02:34:25;;;;;;;2.88;2.33;;;;;;;18.14;100.00;99265.28;10314761;28;20062;-75
2023/07/28 02:39:27;;;;;;;2.88;2.30;;;;;;;18.12;100.00;99257.41;10321161;28;20704;-78
2023/07/28 02:44:29;;;;;;;3.25;2.25;;;;;;;18.08;100.00;99255.28;10314758;28;21386;-78
2023/07/28 02:49:30;;;;;;;2.70;2.30;;;;;;;18.09;100.00;99268.56;10318479;28;20049;-76
2023/07/28 02:54:31;;;;;;;4.18;2.25;;;;;;;18.12;100.00;99272.69;10323156;28;20219;-76
2023/07/28 02:59:33;;;;;;;4.78;2.40;;;;;;;18.12;100.00;99267.31;10330314;28;20140;-77
2023/07/28 03:04:34;;;;;;;2.20;1.85;;;;;;;18.15;100.00;99278.53;10328853;28;20431;-76
2023/07/28 03:09:36;;;;;;;2.10;1.90;;;;;;;18.19;100.00;99279.81;10348628;28;20558;-75
2023/07/28 03:14:37;;;;;;;3.60;2.38;;;;;;;18.18;100.00;99277.31;10383629;28;20126;-76
2023/07/28 03:19:39;;;;;;;2.55;2.15;;;;;;;18.17;100.00;99281.03;10350969;28;20045;-75
2023/07/28 03:24:41;;;;;;;2.63;2.22;;;;;;;18.17;100.00;99271.09;10343247;28;20132;-75
2023/07/28 03:29:43;;;;;;;3.63;2.22;;;;;;;18.18;100.00;99271.94;10335956;28;20058;-73
2023/07/28 03:34:44;;;;;;;4.55;3.15;;;;;;;18.10;100.00;99266.69;10338786;28;20062;-76
2023/07/28 03:39:46;;;;;;;2.92;2.60;;;;;;;18.11;100.00;99271.88;10336743;28;20060;-76
2023/07/28 03:44:47;;;;;;;3.70;2.08;;;;;;;18.09;100.00;99265.03;10336367;28;20054;-75
2023/07/28 03:49:49;;;;;;;3.38;2.00;;;;;;;18.07;100.00;99270.59;10335710;28;20041;-75
2023/07/28 03:54:50;;;;;;;2.60;2.20;;;;;;;18.06;100.00;99262.72;10335652;28;20092;-76
2023/07/28 03:59:52;;;;;;;2.78;1.60;;;;;;;18.10;100.00;99258.63;10332719;28;20144;-80
2023/07/28 04:04:54;;;;;;;3.20;2.28;;;;;;;18.12;100.00;99264.63;10335771;28;20057;-78
2023/07/28 04:09:56;;;;;;;2.15;1.95;;;;;;;18.15;100.00;99277.69;10332500;28;20073;-77
2023/07/28 04:14:57;;;;;;;2.63;1.83;;;;;;;18.12;100.00;99283.47;10331903;28;20056;-76
2023/07/28 04:19:58;;;;;;;4.38;2.10;;;;;;;18.14;100.00;99292.22;10340780;28;20058;-76
2023/07/28 04:25:00;;;;;;;5.03;2.45;;;;;;;18.15;100.00;99296.53;10336188;28;20504;-76
2023/07/28 04:30:01;;;;;;;2.60;2.08;;;;;;;18.16;100.00;99309.00;10333431;28;20149;-76
2023/07/28 04:35:03;;;;;;;2.38;1.90;;;;;;;18.08;100.00;99301.91;10333937;28;20136;-75
2023/07/28 04:40:05;;;;;;;2.10;1.75;;;;;;;18.14;100.00;99289.50;10334423;28;20560;-75
2023/07/28 04:45:07;;;;;;;3.30;2.22;;;;;;;18.14;100.00;99292.22;10331138;28;20050;-78
2023/07/28 04:50:08;;;;;;;3.83;1.83;;;;;;;18.18;100.00;99309.66;10333578;28;20629;-75
2023/07/28 04:55:10;;;;;;;2.22;1.67;;;;;;;18.18;100.00;99309.66;10322907;28;20048;-77
2023/07/28 05:00:12;;;;;;;3.10;1.60;;;;;;;18.22;100.00;99321.66;10332834;28;20050;-77
2023/07/28 05:05:13;;;;;;;2.63;1.60;;;;;;;18.24;100.00;99321.47;10329913;28;20069;-79
2023/07/28 05:10:15;;;;;;;2.30;1.65;;;;;;;18.27;100.00;99339.94;10334419;28;20061;-77
2023/07/28 05:15:17;;;;;;;2.92;1.60;;;;;;;18.27;100.00;99338.09;10329209;28;20132;-74
2023/07/28 05:20:19;;;;;;;4.47;1.80;;;;;;;18.30;100.00;99343.09;10330354;28;20066;-76
2023/07/28 05:25:20;;;;;;;1.92;1.73;;;;;;;18.28;100.00;99334.34;10331505;28;20706;-76
2023/07/28 05:30:21;;;;;;;1.83;1.52;;;;;;;18.34;100.00;99346.22;10328717;28;20231;-77
2023/07/28 05:35:28;;;;;;;2.53;2.03;;;;;;;18.38;100.00;99351.00;10330727;28;20042;-76
2023/07/28 05:40:30;;;;;;;3.92;1.77;;;;;;;18.35;100.00;99348.72;10330878;28;20096;-77
2023/07/28 05:45:31;;;;;;;2.05;1.73;;;;;;;18.41;100.00;99354.34;10329247;28;20050;-78
2023/07/28 05:50:38;;;;;;;2.03;1.83;;;;;;;18.45;100.00;99355.59;10329282;28;20280;-74
2023/07/28 05:55:40;;;;;;;2.28;1.88;;;;;;;18.47;100.00;99353.56;10333093;28;20093;-74
2023/07/28 06:00:41;;;;;;;1.95;1.75;;;;;;;18.54;100.00;99354.44;10336657;28;20819;-76
2023/07/28 06:05:43;;;;;;;2.00;1.90;;;;;;;18.58;100.00;99353.00;10332652;28;20581;-77
2023/07/28 06:10:44;;;;;;;5.18;2.03;;;;;;;18.63;100.00;99350.56;10331055;28;20074;-77
2023/07/28 06:15:47;;;;;;;2.40;2.20;;;;;;;18.66;100.00;99360.94;10329876;28;20070;-76
2023/07/28 06:20:49;;;;;;;2.20;1.65;;;;;;;18.73;100.00;99367.22;10329268;28;20772;-74
2023/07/28 06:25:50;;;;;;;2.28;1.67;;;;;;;18.77;100.00;99351.47;10331971;28;20066;-75
2023/07/28 06:30:56;;;;;;;1.77;1.60;;;;;;;18.78;100.00;99369.31;10338637;28;20514;-75
2023/07/28 06:36:00;;;;;;;2.78;1.88;;;;;;;18.81;100.00;99368.06;10336045;28;20057;-78
2023/07/28 06:41:01;;;;;;;1.80;1.50;;;;;;;18.80;100.00;99372.63;10335669;28;20470;-76
2023/07/28 06:46:03;;;;;;;1.73;1.60;;;;;;;18.78;100.00;99369.31;10334932;28;20058;-74
2023/07/28 06:51:04;;;;;;;2.90;2.13;;;;;;;18.79;100.00;99373.66;10337496;28;20125;-77
2023/07/28 06:56:05;;;;;;;2.40;1.45;;;;;;;18.80;100.00;99382.59;10338112;28;20148;-77
2023/07/28 07:01:10;;;;;;;4.53;2.03;;;;;;;18.91;100.00;99390.13;10336406;28;20587;-76
2023/07/28 07:06:12;;;;;;;1.50;1.40;;;;;;;18.95;100.00;99388.72;10334575;28;20200;-75
2023/07/28 07:11:13;;;;;;;1.20;1.10;;;;;;;18.98;100.00;99396.41;10336184;28;20141;-78
2023/07/28 07:16:16;;;;;;;1.55;1.00;;;;;;;19.07;100.00;99397.91;10337930;28;20809;-75
2023/07/28 07:21:24;;;;;;;1.00;0.73;;;;;;;19.15;100.00;99404.16;10332125;28;20519;-76
2023/07/28 07:26:26;;;;;;;1.10;1.00;;;;;;;19.18;100.00;99406.47;10333564;28;20538;-77
2023/07/28 07:31:28;;;;;;;0.88;0.60;;;;;;;19.22;100.00;99407.75;10334595;28;20462;-77
2023/07/28 07:36:30;;;;;;;0.70;0.50;;;;;;;19.21;100.00;99406.06;10335758;28;20460;-76
2023/07/28 07:41:31;;;;;;;0.90;0.60;;;;;;;19.27;100.00;99416.03;10335491;28;20519;-76
2023/07/28 07:46:33;;;;;;;1.92;0.45;;;;;;;19.37;100.00;99427.31;10323315;28;20061;-76
2023/07/28 07:51:34;;;;;;;2.08;0.60;;;;;;;19.45;100.00;99429.00;10323318;28;20473;-78
2023/07/28 07:56:36;;;;;;;1.10;0.43;;;;;;;19.49;100.00;99424.03;10327774;28;20080;-77
2023/07/28 08:01:38;;;;;;;1.77;0.50;;;;;;;19.61;100.00;99427.81;10329233;28;20061;-75
2023/07/28 08:06:39;;;;;;;2.22;0.60;;;;;;;19.75;100.00;99424.09;10330692;28;20054;-75
2023/07/28 08:11:41;;;;;;;1.75;0.50;;;;;;;19.87;100.00;99443.28;10363812;28;20051;-75
2023/07/28 08:16:42;;;;;;;0.88;0.52;;;;;;;19.95;100.00;99435.00;10338892;28;20513;-78
2023/07/28 08:21:44;;;;;;;1.73;0.40;;;;;;;20.04;100.00;99432.94;10335987;28;20400;-77
2023/07/28 08:26:45;;;;;;;2.75;0.63;;;;;;;20.27;100.00;99448.75;10333537;28;20061;-79
2023/07/28 08:31:47;;;;;;;1.42;0.40;;;;;;;20.36;100.00;99440.47;10332784;28;20085;-77
2023/07/28 08:36:48;;;;;;;1.27;0.43;;;;;;;20.51;100.00;99442.94;10336491;28;20068;-75
2023/07/28 08:42:01;;;;;;;0.57;0.20;;;;;;;20.77;100.00;99442.13;10348819;28;20152;-74
2023/07/28 08:47:04;;;;;;;1.42;0.45;;;;;;;20.97;97.12;99442.94;10333646;28;20061;-77
2023/07/28 08:52:06;;;;;;;;;;;;;;;21.12;95.43;99458.94;10336860;28;20203;-77
2023/07/28 08:57:09;;;;;;;0.55;0.20;;;;;;;21.08;93.83;99471.22;10332090;28;20347;-76
2023/07/28 09:02:10;;;;;;;0.68;0.20;;;;;;;21.06;92.15;99467.03;10330851;28;20050;-76
2023/07/28 09:07:12;;;;;;;1.00;0.30;;;;;;;21.00;91.71;99457.88;10329270;28;20042;-77
2023/07/28 09:12:13;;;;;;;0.70;0.30;;;;;;;21.11;92.04;99461.84;10332288;28;20054;-76
2023/07/28 09:17:15;;;;;;;1.45;0.30;;;;;;;21.14;91.10;99459.53;10334461;28;20273;-78
2023/07/28 09:22:17;;;;;;;0.70;0.25;;;;;;;21.29;90.54;99477.41;10337682;28;20578;-77
2023/07/28 09:27:25;;;;;;;1.23;0.40;;;;;;;21.39;87.95;99471.53;10335217;28;20053;-74
2023/07/28 09:32:33;;;;;;;0.20;0.10;;;;;;;21.40;87.67;99468.63;10333110;28;20103;-77
2023/07/28 09:37:40;;;;;;;2.50;0.50;;;;;;;21.53;89.12;99474.03;10333267;28;20054;-75
2023/07/28 09:42:44;;;;;;;1.10;0.10;;;;;;;21.48;86.76;99471.09;10331372;28;20050;-79
2023/07/28 09:47:47;;;;;;;1.25;0.28;;;;;;;21.56;86.68;99478.19;10333832;28;20058;-76
2023/07/28 09:52:57;;;;;;;1.30;0.20;;;;;;;21.63;85.99;99468.16;10334688;28;20123;-76
2023/07/28 09:58:04;;;;;;;0.63;0.20;;;;;;;21.71;84.05;99467.91;10330440;28;20057;-76
2023/07/28 10:03:05;;;;;;;0.47;0.30;;;;;;;21.73;83.85;99456.03;10339749;28;20528;-76
2023/07/28 10:08:08;;;;;;;0.88;0.30;;;;;;;21.83;82.07;99468.06;10344632;28;20153;-76
2023/07/28 10:13:21;;;;;;;0.60;0.22;;;;;;;22.07;81.71;99462.91;10340923;28;20065;-80
2023/07/28 10:18:25;;;;;;;0.85;0.35;;;;;;;22.33;80.08;99461.94;10340257;28;20053;-76
2023/07/28 10:23:27;;;;;;;0.80;0.40;;;;;;;22.47;79.79;99468.06;10341765;28;20057;-77
2023/07/28 10:28:31;;;;;;;1.83;0.40;;;;;;;22.61;77.91;99468.81;10341952;28;22339;-74
2023/07/28 10:33:43;;;;;;;0.55;0.20;;;;;;;22.88;75.88;99484.84;10341844;28;20431;-76
2023/07/28 10:38:45;;;;;;;0.50;0.20;;;;;;;23.04;76.46;99472.59;10346982;28;20889;-78
2023/07/28 10:43:46;;;;;;;1.00;0.35;;;;;;;23.04;75.49;99473.41;10376115;28;20050;-76
2023/07/28 10:48:49;;;;;;;0.55;0.30;;;;;;;23.09;75.13;99481.75;10375943;28;20297;-80
2023/07/28 10:53:51;;;;;;;;;;;;;;;23.11;75.35;99476.91;10380613;28;20057;-80
2023/07/28 10:58:58;;;;;;;1.15;0.60;;;;;;;23.06;73.95;99484.03;10376719;28;20273;-78
2023/07/28 11:04:15;;;;;;;3.08;0.40;;;;;;;23.07;74.01;99478.38;10372472;28;20073;-78
2023/07/28 11:09:19;;;;;;;0.52;0.30;;;;;;;22.87;74.29;99486.72;10345056;28;20067;-76
2023/07/28 11:14:20;;;;;;;0.40;0.28;;;;;;;22.73;75.43;99491.44;10336721;28;20137;-77
2023/07/28 11:19:24;;;;;;;1.00;0.30;;;;;;;22.66;75.99;99484.41;10338608;28;20049;-77
2023/07/28 11:24:27;;;;;;;1.83;0.22;;;;;;;22.73;76.90;99493.34;10335892;28;20112;-77
2023/07/28 11:29:29;;;;;;;1.75;0.38;;;;;;;22.92;76.09;99486.06;10335973;28;20161;-78
2023/07/28 11:34:36;;;;;;;0.82;0.20;;;;;;;22.85;76.48;99486.13;10336303;28;20522;-77
2023/07/28 11:39:39;;;;;;;0.50;0.20;;;;;;;22.71;76.44;99492.72;10333215;28;20605;-76
2023/07/28 11:44:40;;;;;;;0.73;0.20;;;;;;;22.57;78.90;99487.41;10334532;28;20536;-78
2023/07/28 11:49:48;;;;;;;1.15;0.30;;;;;;;22.56;81.65;99493.91;10340638;28;20057;-77
2023/07/28 11:54:52;;;;;;;2.05;0.40;;;;;;;22.63;81.50;99488.41;10338415;28;20197;-76
2023/07/28 11:59:54;;;;;;;0.55;0.40;;;;;;;22.62;79.32;99484.03;10337300;28;21715;-74
2023/07/28 12:04:57;;;;;;;0.70;0.50;;;;;;;22.57;80.83;99489.28;10333993;28;20061;-78
2023/07/28 12:10:08;;;;;;;1.23;0.90;;;;;;;22.47;81.42;99489.75;10332508;28;20057;-78
2023/07/28 12:15:33;;;;;;;1.50;0.47;;;;;;;22.38;81.71;99491.09;10333988;28;20136;-77
2023/07/28 12:20:46;;;;;;;0.90;0.82;;;;;;;22.37;82.14;99494.88;10334910;28;20532;-75
2023/07/28 12:25:50;;;;;;;3.22;1.75;;;;;;;22.28;82.95;99504.25;10334240;28;20052;-77
2023/07/28 12:30:52;;;;;;;;;;;;;;;22.10;92.03;99496.88;10349542;28;20057;-77
2023/07/28 12:35:54;;;;;;;2.35;1.50;;;;;;;22.03;94.13;99499.63;10356469;28;19931;-75
2023/07/28 12:41:19;;;;;;;2.30;2.03;;;;;;;22.04;94.14;99502.13;10323695;28;20056;-77
2023/07/28 12:46:26;;;;;;;2.40;1.90;;;;;;;22.04;93.61;99504.81;10297692;28;20081;-78
2023/07/28 12:51:28;;;;;;;4.88;2.33;;;;;;;22.12;95.12;99503.75;10287489;28;20045;-76
2023/07/28 12:56:32;;;;;;;2.85;1.70;;;;;;;22.36;93.67;99507.56;10306765;28;20084;-76
2023/07/28 13:01:37;;;;;;;1.08;0.98;;;;;;;22.53;87.40;99502.47;10324882;28;20053;-76
2023/07/28 13:06:40;;;;;;;2.20;1.38;;;;;;;22.78;86.66;99517.91;10332054;28;20424;-77
2023/07/28 13:11:42;;;;;;;1.60;1.27;;;;;;;22.84;84.85;99516.19;10337315;28;20429;-76
2023/07/28 13:16:46;;;;;;;2.13;1.85;;;;;;;22.90;83.32;99518.03;10331498;28;20046;-78
2023/07/28 13:21:48;;;;;;;2.30;1.55;;;;;;;23.03;85.32;99506.19;10331928;28;20503;-76
2023/07/28 13:26:49;;;;;;;1.65;1.50;;;;;;;23.04;83.53;99516.81;10332841;28;20412;-74
2023/07/28 13:31:50;;;;;;;1.38;1.00;;;;;;;22.91;82.67;99520.50;10330161;28;20803;-77
2023/07/28 13:36:52;;;;;;;5.10;1.95;;;;;;;22.77;83.98;99510.81;10330268;28;20132;-74
2023/07/28 13:41:53;;;;;;;1.65;1.25;;;;;;;22.67;84.05;99513.19;10330413;28;20053;-75
2023/07/28 13:46:55;;;;;;;2.28;1.60;;;;;;;22.57;88.78;99519.94;10327231;28;20053;-77
2023/07/28 13:51:57;;;;;;;1.90;1.23;;;;;;;22.27;93.47;99505.34;10329408;28;20049;-75
2023/07/28 13:57:02;;;;;;;2.28;1.40;;;;;;;22.16;96.66;99514.97;10326912;28;20484;-74
2023/07/28 14:02:03;;;;;;;2.53;1.88;;;;;;;22.22;99.07;99503.28;10331370;28;20132;-75
2023/07/28 14:07:05;;;;;;;2.03;1.85;;;;;;;22.33;98.80;99501.78;10333451;28;20092;-75
2023/07/28 14:12:07;;;;;;;2.10;1.70;;;;;;;22.41;99.80;99507.75;10332792;28;20382;-76
2023/07/28 14:17:08;;;;;;;2.40;2.15;;;;;;;22.23;98.85;99522.03;10335045;28;20536;-75
2023/07/28 14:22:10;;;;;;;2.20;1.55;;;;;;;22.21;99.75;99513.28;10332633;28;20243;-76
2023/07/28 14:27:11;;;;;;;1.27;1.10;;;;;;;22.09;97.99;99508.78;10332389;28;20084;-75
2023/07/28 14:32:13;;;;;;;1.35;1.10;;;;;;;21.97;98.72;99522.16;10333115;28;20241;-77
2023/07/28 14:37:15;;;;;;;2.60;0.90;;;;;;;21.88;98.91;99506.16;10332209;28;20529;-75
2023/07/28 14:42:16;;;;;;;2.42;1.30;;;;;;;21.79;97.68;99509.34;10332022;28;20044;-74
2023/07/28 14:47:18;;;;;;;1.13;1.02;;;;;;;21.77;100.00;99506.84;10329606;28;20116;-75
2023/07/28 14:52:19;;;;;;;1.60;1.40;;;;;;;21.76;100.00;99513.28;10338161;28;20516;-75
2023/07/28 14:57:20;;;;;;;2.47;1.17;;;;;;;21.65;100.00;99519.41;10340749;28;20073;-77
2023/07/28 15:02:38;;;;;;;2.55;1.58;;;;;;;21.58;100.00;99524.81;10319010;28;20128;-77
2023/07/28 15:07:40;;;;;;;3.15;1.52;;;;;;;21.54;100.00;99529.00;10338030;28;20056;-75
2023/07/28 15:12:43;;;;;;;5.03;2.15;;;;;;;21.50;100.00;99517.75;10335934;28;20058;-77
2023/07/28 15:17:46;;;;;;;3.85;2.47;;;;;;;21.52;100.00;99510.25;10335642;28;20074;-77
2023/07/28 15:22:47;;;;;;;2.65;2.35;;;;;;;21.65;100.00;99513.97;10337043;28;20061;-75
2023/07/28 15:27:48;;;;;;;4.97;1.98;;;;;;;21.79;100.00;99493.91;10334798;28;20089;-74
2023/07/28 15:32:50;;;;;;;3.00;1.50;;;;;;;21.90;100.00;99505.94;10335678;28;20060;-74
2023/07/28 15:37:52;;;;;;;2.15;1.65;;;;;;;21.97;100.00;99505.91;10338732;28;20496;-77
2023/07/28 15:42:53;;;;;;;2.20;1.38;;;;;;;21.88;100.00;99503.44;10339774;28;20053;-77
2023/07/28 15:47:55;;;;;;;1.63;1.42;;;;;;;21.96;100.00;99506.94;10340385;28;20049;-78
2023/07/28 15:52:56;;;;;;;1.40;1.20;;;;;;;21.98;100.00;99513.81;10340141;28;20060;-78
2023/07/28 15:57:58;;;;;;;2.53;0.90;;;;;;;21.96;100.00;99504.25;10322471;28;20104;-75
2023/07/28 16:02:59;;;;;;;1.98;0.77;;;;;;;21.99;100.00;99509.22;10308239;28;20242;-78
2023/07/28 16:08:06;;;;;;;2.63;1.17;;;;;;;21.95;100.00;99503.44;10315955;28;20054;-77
2023/07/28 16:13:10;;;;;;;1.33;1.05;;;;;;;21.95;100.00;99502.56;10342125;28;20697;-77
2023/07/28 16:18:11;;;;;;;1.33;1.15;;;;;;;21.95;100.00;99502.56;10343603;28;20141;-77
2023/07/28 16:23:13;;;;;;;1.67;1.30;;;;;;;21.88;100.00;99503.44;10311452;28;20640;-77
2023/07/28 16:28:14;;;;;;;1.20;1.08;;;;;;;21.86;100.00;99494.72;10339485;28;20331;-77
2023/07/28 16:33:16;;;;;;;1.23;1.13;;;;;;;21.83;100.00;99494.31;10336471;28;20140;-75
2023/07/28 16:38:17;;;;;;;2.95;1.10;;;;;;;21.84;100.00;99496.81;10335095;28;20057;-77
2023/07/28 16:43:19;;;;;;;2.70;0.95;;;;;;;21.82;100.00;99493.47;10335155;28;20107;-77
2023/07/28 16:48:20;;;;;;;1.55;1.30;;;;;;;21.85;100.00;99500.34;10340560;28;20203;-79
2023/07/28 16:53:22;;;;;;;2.65;1.00;;;;;;;21.82;100.00;99498.88;10373284;28;20153;-78
2023/07/28 16:58:23;;;;;;;1.50;0.70;;;;;;;21.80;97.96;99497.44;10338122;28;20049;-78
2023/07/28 17:03:25;;;;;;;2.13;0.85;;;;;;;21.71;97.91;99494.16;10333568;28;20073;-77
2023/07/28 17:08:27;;;;;;;1.35;0.60;;;;;;;21.68;97.35;99489.19;10336620;28;20507;-78
2023/07/28 17:13:28;;;;;;;3.35;1.00;;;;;;;21.67;98.17;99503.75;10334384;28;20543;-76
2023/07/28 17:18:30;;;;;;;2.03;0.80;;;;;;;21.64;97.92;99493.34;10335942;28;20492;-77
2023/07/28 17:23:31;;;;;;;1.27;0.82;;;;;;;21.58;98.38;99500.44;10334556;28;20048;-77
2023/07/28 17:28:33;;;;;;;1.02;0.63;;;;;;;21.51;98.20;99503.19;10329296;28;20093;-76
2023/07/28 17:33:34;;;;;;;1.65;0.70;;;;;;;21.53;98.38;99511.91;10333409;28;20120;-78
2023/07/28 17:38:35;;;;;;;0.95;0.43;;;;;;;21.54;98.01;99507.31;10336662;28;20052;-78
2023/07/28 17:43:37;;;;;;;1.65;0.68;;;;;;;21.50;98.15;99506.94;10336198;28;20081;-79
2023/07/28 17:48:38;;;;;;;0.90;0.50;;;;;;;21.45;97.00;99495.91;10340296;28;20089;-78
2023/07/28 17:53:40;;;;;;;1.55;0.50;;;;;;;21.47;96.98;99507.34;10344887;28;20181;-79
2023/07/28 17:58:41;;;;;;;3.03;0.90;;;;;;;21.54;98.33;99508.19;10341491;28;20057;-75
2023/07/28 18:03:42;;;;;;;1.25;0.95;;;;;;;21.45;97.94;99509.44;10335225;28;20062;-78
2023/07/28 18:08:44;;;;;;;1.30;0.77;;;;;;;21.39;98.36;99520.25;10337741;28;20314;-77
2023/07/28 18:13:46;;;;;;;1.27;0.82;;;;;;;21.35;99.03;99520.69;10339317;28;20056;-80
2023/07/28 18:18:47;;;;;;;3.88;1.70;;;;;;;21.37;99.33;99518.59;10340749;28;20152;-77
2023/07/28 18:23:49;;;;;;;1.08;0.60;;;;;;;21.36;99.67;99533.19;10347462;28;20097;-77
2023/07/28 18:28:50;;;;;;;1.63;1.17;;;;;;;21.21;100.00;99539.88;10344444;28;20053;-78
2023/07/28 18:33:51;;;;;;;1.88;1.00;;;;;;;21.16;100.00;99533.22;10349846;28;20045;-77
2023/07/28 18:38:53;;;;;;;1.92;1.08;;;;;;;21.12;100.00;99536.53;10344757;28;20046;-76
2023/07/28 18:43:54;;;;;;;2.00;0.77;;;;;;;21.08;100.00;99540.72;10337548;28;20544;-76
2023/07/28 18:48:55;;;;;;;1.63;0.80;;;;;;;20.98;100.00;99543.84;10342242;28;20459;-77
2023/07/28 18:53:57;;;;;;;1.00;0.70;;;;;;;21.00;100.00;99539.06;10344236;28;20061;-78
2023/07/28 18:58:58;;;;;;;2.80;1.73;;;;;;;21.00;100.00;99560.69;10342608;28;20078;-77
2023/07/28 19:03:59;;;;;;;3.28;0.95;;;;;;;20.91;100.00;99551.13;10342807;28;20054;-77
2023/07/28 19:09:01;;;;;;;2.65;1.10;;;;;;;20.78;100.00;99547.38;10345196;28;20045;-78
2023/07/28 19:14:03;;;;;;;2.17;1.17;;;;;;;20.83;100.00;99566.50;10351892;28;20129;-77
2023/07/28 19:19:04;;;;;;;1.67;1.38;;;;;;;20.83;100.00;99558.41;10331662;28;20132;-77
2023/07/28 19:24:05;;;;;;;2.00;1.42;;;;;;;20.79;100.00;99565.28;10336201;28;20095;-78
2023/07/28 19:29:08;;;;;;;2.55;1.15;;;;;;;20.82;100.00;99559.47;10345212;28;20049;-78
2023/07/28 19:34:09;;;;;;;2.00;1.42;;;;;;;20.83;100.00;99568.41;10339304;28;20245;-78
2023/07/28 19:39:10;;;;;;;1.52;0.95;;;;;;;20.87;100.00;99571.50;10345803;28;20050;-76
2023/07/28 19:44:12;;;;;;;1.55;1.00;;;;;;;20.73;100.00;99584.19;10337723;28;20402;-76
2023/07/28 19:49:16;;;;;;;1.30;0.83;;;;;;;20.66;100.00;99576.09;10337794;28;20065;-79
2023/07/28 19:54:18;;;;;;;1.00;0.70;;;;;;;20.63;100.00;99582.69;10338843;28;20045;-78
2023/07/28 19:59:19;;;;;;;2.03;0.90;;;;;;;20.65;100.00;99588.75;10333848;28;20069;-77
2023/07/28 20:04:21;;;;;;;1.60;1.08;;;;;;;20.64;100.00;99600.59;10333560;28;20409;-75
2023/07/28 20:09:25;;;;;;;2.35;1.00;;;;;;;20.71;100.00;99611.44;10342591;28;20084;-74
2023/07/28 20:14:27;;;;;;;1.73;1.15;;;;;;;20.65;100.00;99604.97;10338934;28;20085;-75
2023/07/28 20:19:29;;;;;;;3.03;1.05;;;;;;;20.60;100.00;99612.03;10339314;28;20056;-76
2023/07/28 20:24:30;;;;;;;2.08;1.23;;;;;;;20.49;100.00;99600.78;10336086;28;20054;-78
2023/07/28 20:29:32;;;;;;;1.52;1.42;;;;;;;20.45;100.00;99604.09;10336946;28;20045;-77
2023/07/28 20:34:34;;;;;;;1.20;1.02;;;;;;;20.44;100.00;99599.72;10339304;28;20046;-76
2023/07/28 20:39:35;;;;;;;1.45;1.08;;;;;;;20.47;100.00;99608.25;10332653;28;20456;-75
2023/07/28 20:44:37;;;;;;;2.28;1.48;;;;;;;20.47;100.00;99605.53;10333933;28;20127;-75
2023/07/28 20:49:38;;;;;;;2.15;1.10;;;;;;;20.45;100.00;99604.09;10339566;28;20148;-73
2023/07/28 20:54:41;;;;;;;3.45;1.20;;;;;;;20.45;100.00;99606.78;10341465;28;20048;-73
2023/07/28 20:59:42;;;;;;;1.73;1.48;;;;;;;20.41;100.00;99609.06;10338973;28;20049;-76
2023/07/28 21:04:43;;;;;;;1.50;1.30;;;;;;;20.39;100.00;99611.13;10355987;28;20049;-72
2023/07/28 21:09:45;;;;;;;1.98;1.40;;;;;;;20.44;100.00;99616.75;10334353;28;20107;-75
2023/07/28 21:14:48;;;;;;;4.53;1.50;;;;;;;20.39;100.00;99608.44;10335775;28;20053;-76
2023/07/28 21:19:49;;;;;;;1.53;1.43;;;;;;;20.42;100.00;99616.13;10327716;28;20766;-74
2023/07/28 21:24:50;;;;;;;2.40;2.20;;;;;;;20.34;100.00;99610.06;10337142;28;20045;-73
2023/07/28 21:29:52;;;;;;;3.15;1.60;;;;;;;20.27;100.00;99610.06;10334047;28;20045;-73
2023/07/28 21:34:53;;;;;;;2.60;1.70;;;;;;;20.30;100.00;99612.38;10320566;28;20104;-72
2023/07/28 21:39:55;;;;;;;2.63;2.00;;;;;;;20.33;100.00;99622.75;10322489;28;20155;-74
2023/07/28 21:45:00;;;;;;;2.30;2.10;;;;;;;20.30;100.00;99620.47;10321559;28;20058;-71
2023/07/28 21:50:01;;;;;;;2.58;2.00;;;;;;;20.27;100.00;99615.47;10352085;28;22607;-72
2023/07/28 21:55:04;;;;;;;2.92;1.98;;;;;;;20.27;100.00;99604.66;10275789;28;21392;-73
2023/07/28 22:00:12;;;;;;;2.93;1.67;;;;;;;20.24;100.00;99600.50;10278470;28;20122;-74
2023/07/28 22:05:18;;;;;;;2.30;1.88;;;;;;;20.27;100.00;99610.06;10313432;28;20056;-72
2023/07/28 22:10:20;;;;;;;2.35;1.90;;;;;;;20.27;100.00;99618.19;10319307;28;20057;-75
2023/07/28 22:15:24;;;;;;;3.92;2.45;;;;;;;20.23;100.00;99608.78;10278676;28;20615;-73
2023/07/28 22:20:29;;;;;;;2.60;2.38;;;;;;;20.20;100.00;99603.81;10276053;28;21251;-74
2023/07/28 22:25:40;;;;;;;2.92;2.35;;;;;;;20.12;100.00;99605.63;10291182;28;20061;-75
2023/07/28 22:30:42;;;;;;;3.33;2.10;;;;;;;20.11;100.00;99612.06;10304570;28;20060;-74
2023/07/28 22:35:49;;;;;;;3.17;2.35;;;;;;;20.06;100.00;99606.44;10287803;28;20049;-73
2023/07/28 22:40:50;;;;;;;2.83;2.53;;;;;;;20.04;100.00;99600.41;10305181;28;20105;-77
2023/07/28 22:45:57;;;;;;;4.15;2.35;;;;;;;20.00;100.00;99591.03;10302338;28;20054;-76
2023/07/28 22:50:59;;;;;;;2.83;2.50;;;;;;;19.94;100.00;99583.75;10249487;28;20129;-76
2023/07/28 22:56:21;;;;;;;4.35;2.47;;;;;;;19.96;100.00;99577.09;10260110;28;20060;-72
2023/07/28 23:01:23;;;;;;;3.40;2.50;;;;;;;19.92;100.00;99583.94;10283086;28;20101;-75
2023/07/28 23:06:27;;;;;;;4.60;3.00;;;;;;;19.88;100.00;99584.56;10295124;28;20144;-73
2023/07/28 23:11:29;;;;;;;4.60;2.88;;;;;;;19.88;100.00;99584.56;10327218;28;20526;-76
2023/07/28 23:16:30;;;;;;;3.75;2.75;;;;;;;19.85;100.00;99580.38;10292421;28;20041;-78